sensor_id;sensor_type;location;lat;lon;timestamp;pressure;altitude;pressure_sealevel;temperature;humidity
54453;BME280;40363;52.270;10.546;2023-06-01T00:02:10;76624.94;;;-147.06;79.20
54453;BME280;40363;52.270;10.546;2023-06-01T00:04:38;76624.94;;;-147.06;79.21
54453;BME280;40363;52.270;10.546;2023-06-01T00:07:06;76661.94;;;-147.06;79.61
54453;BME280;40363;52.270;10.546;2023-06-01T00:09:32;76674.28;;;-147.06;80.06
54453;BME280;40363;52.270;10.546;2023-06-01T00:11:59;76684.56;;;-147.06;80.63
54453;BME280;40363;52.270;10.546;2023-06-01T00:14:26;76711.28;;;-147.06;81.98
54453;BME280;40363;52.270;10.546;2023-06-01T00:16:52;76715.38;;;-147.06;82.69
54453;BME280;40363;52.270;10.546;2023-06-01T00:19:21;76709.22;;;-147.06;82.79
54453;BME280;40363;52.270;10.546;2023-06-01T00:21:49;76731.84;;;-147.06;83.20
54453;BME280;40363;52.270;10.546;2023-06-01T00:24:16;76733.88;;;-147.06;83.66
54453;BME280;40363;52.270;10.546;2023-06-01T00:26:42;76727.72;;;-147.06;83.33
54453;BME280;40363;52.270;10.546;2023-06-01T00:29:09;76735.94;;;-147.06;83.56
54453;BME280;40363;52.270;10.546;2023-06-01T00:31:36;76729.78;;;-147.06;83.63
54453;BME280;40363;52.270;10.546;2023-06-01T00:34:02;76754.44;;;-147.06;83.38
54453;BME280;40363;52.270;10.546;2023-06-01T00:36:29;76762.66;;;-147.06;83.89
54453;BME280;40363;52.270;10.546;2023-06-01T00:38:58;76791.44;;;-147.06;84.88
54453;BME280;40363;52.270;10.546;2023-06-01T00:41:28;76801.72;;;-147.06;85.54
54453;BME280;40363;52.270;10.546;2023-06-01T00:43:54;76797.63;;;-147.06;85.40
54453;BME280;40363;52.270;10.546;2023-06-01T00:46:21;76793.50;;;-147.06;85.12
54453;BME280;40363;52.270;10.546;2023-06-01T00:48:48;76805.84;;;-147.06;85.33
54453;BME280;40363;52.270;10.546;2023-06-01T00:51:15;76820.22;;;-147.06;85.57
54453;BME280;40363;52.270;10.546;2023-06-01T00:53:42;76822.28;;;-147.06;85.67
54453;BME280;40363;52.270;10.546;2023-06-01T00:56:11;76830.50;;;-147.06;86.20
54453;BME280;40363;52.270;10.546;2023-06-01T00:58:38;76822.28;;;-147.06;85.89
54453;BME280;40363;52.270;10.546;2023-06-01T01:01:05;76832.56;;;-147.06;86.08
54453;BME280;40363;52.270;10.546;2023-06-01T01:03:33;76842.84;;;-147.06;86.11
54453;BME280;40363;52.270;10.546;2023-06-01T01:06:06;76840.78;;;-147.06;86.24
54453;BME280;40363;52.270;10.546;2023-06-01T01:08:43;76836.66;;;-147.06;85.76
54453;BME280;40363;52.270;10.546;2023-06-01T01:11:19;76859.28;;;-147.06;86.07
54453;BME280;40363;52.270;10.546;2023-06-01T01:13:49;76865.44;;;-147.06;86.12
54453;BME280;40363;52.270;10.546;2023-06-01T01:16:23;76863.38;;;-147.06;85.97
54453;BME280;40363;52.270;10.546;2023-06-01T01:18:58;76859.28;;;-147.06;85.92
54453;BME280;40363;52.270;10.546;2023-06-01T01:21:31;76875.72;;;-147.06;86.32
54453;BME280;40363;52.270;10.546;2023-06-01T01:24:17;76879.84;;;-147.06;86.25
54453;BME280;40363;52.270;10.546;2023-06-01T01:27:06;76890.13;;;-147.06;86.00
54453;BME280;40363;52.270;10.546;2023-06-01T01:29:40;76898.34;;;-147.06;86.40
54453;BME280;40363;52.270;10.546;2023-06-01T01:32:08;76904.50;;;-147.06;85.60
54453;BME280;40363;52.270;10.546;2023-06-01T01:34:36;76943.56;;;-147.06;86.39
54453;BME280;40363;52.270;10.546;2023-06-01T01:37:07;76957.94;;;-147.06;86.76
54453;BME280;40363;52.270;10.546;2023-06-01T01:39:34;76953.84;;;-147.06;86.67
54453;BME280;40363;52.270;10.546;2023-06-01T01:42:00;76953.84;;;-147.06;86.91
54453;BME280;40363;52.270;10.546;2023-06-01T01:44:27;76957.94;;;-147.06;87.09
54453;BME280;40363;52.270;10.546;2023-06-01T01:46:58;76960.00;;;-147.06;87.00
54453;BME280;40363;52.270;10.546;2023-06-01T01:49:41;76962.06;;;-147.06;87.09
54453;BME280;40363;52.270;10.546;2023-06-01T01:52:12;76957.94;;;-147.06;86.96
54453;BME280;40363;52.270;10.546;2023-06-01T01:54:42;76966.16;;;-147.06;87.08
54453;BME280;40363;52.270;10.546;2023-06-01T01:57:10;76945.63;;;-147.06;86.47
54453;BME280;40363;52.270;10.546;2023-06-01T01:59:40;76941.50;;;-147.06;86.75
54453;BME280;40363;52.270;10.546;2023-06-01T02:02:08;76949.72;;;-147.06;86.94
54453;BME280;40363;52.270;10.546;2023-06-01T02:04:38;76945.63;;;-147.06;87.00
54453;BME280;40363;52.270;10.546;2023-06-01T02:07:08;76945.63;;;-147.06;87.33
54453;BME280;40363;52.270;10.546;2023-06-01T02:09:35;76931.22;;;-147.06;87.08
54453;BME280;40363;52.270;10.546;2023-06-01T02:12:02;76945.63;;;-147.06;86.85
54453;BME280;40363;52.270;10.546;2023-06-01T02:14:29;76949.72;;;-147.06;86.77
54453;BME280;40363;52.270;10.546;2023-06-01T02:16:56;76953.84;;;-147.06;87.04
54453;BME280;40363;52.270;10.546;2023-06-01T02:19:24;76953.84;;;-147.06;86.74
54453;BME280;40363;52.270;10.546;2023-06-01T02:21:51;76960.00;;;-147.06;86.40
54453;BME280;40363;52.270;10.546;2023-06-01T02:24:17;76974.38;;;-147.06;87.01
54453;BME280;40363;52.270;10.546;2023-06-01T02:26:45;76997.00;;;-147.06;88.10
54453;BME280;40363;52.270;10.546;2023-06-01T02:29:14;77011.38;;;-147.06;88.70
54453;BME280;40363;52.270;10.546;2023-06-01T02:31:41;76990.84;;;-147.06;88.49
54453;BME280;40363;52.270;10.546;2023-06-01T02:34:07;76990.84;;;-147.06;87.85
54453;BME280;40363;52.270;10.546;2023-06-01T02:36:36;76997.00;;;-147.06;88.42
54453;BME280;40363;52.270;10.546;2023-06-01T02:39:03;77011.38;;;-147.06;88.62
54453;BME280;40363;52.270;10.546;2023-06-01T02:41:29;77027.84;;;-147.06;89.39
54453;BME280;40363;52.270;10.546;2023-06-01T02:43:56;77003.16;;;-147.06;89.37
54453;BME280;40363;52.270;10.546;2023-06-01T02:46:23;77015.50;;;-147.06;89.71
54453;BME280;40363;52.270;10.546;2023-06-01T02:48:50;77003.16;;;-147.06;89.41
54453;BME280;40363;52.270;10.546;2023-06-01T02:51:18;77001.13;;;-147.06;89.58
54453;BME280;40363;52.270;10.546;2023-06-01T02:53:46;76978.50;;;-147.06;89.22
54453;BME280;40363;52.270;10.546;2023-06-01T02:56:13;76982.63;;;-147.06;88.93
54453;BME280;40363;52.270;10.546;2023-06-01T02:58:40;76990.84;;;-147.06;89.08
54453;BME280;40363;52.270;10.546;2023-06-01T03:01:07;76968.22;;;-147.06;88.48
54453;BME280;40363;52.270;10.546;2023-06-01T03:03:37;76974.38;;;-147.06;88.75
54453;BME280;40363;52.270;10.546;2023-06-01T03:06:04;76986.72;;;-147.06;88.92
54453;BME280;40363;52.270;10.546;2023-06-01T03:08:31;76966.16;;;-147.06;88.38
54453;BME280;40363;52.270;10.546;2023-06-01T03:11:00;76976.44;;;-147.06;88.86
54453;BME280;40363;52.270;10.546;2023-06-01T03:13:27;76974.38;;;-147.06;88.96
54453;BME280;40363;52.270;10.546;2023-06-01T03:15:54;76982.63;;;-147.06;89.03
54453;BME280;40363;52.270;10.546;2023-06-01T03:18:21;76986.72;;;-147.06;89.17
54453;BME280;40363;52.270;10.546;2023-06-01T03:20:47;76976.44;;;-147.06;88.94
54453;BME280;40363;52.270;10.546;2023-06-01T03:23:14;76992.88;;;-147.06;89.71
54453;BME280;40363;52.270;10.546;2023-06-01T03:25:41;76994.94;;;-147.06;89.82
54453;BME280;40363;52.270;10.546;2023-06-01T03:28:09;76982.63;;;-147.06;89.88
54453;BME280;40363;52.270;10.546;2023-06-01T03:30:36;76968.22;;;-147.06;89.63
54453;BME280;40363;52.270;10.546;2023-06-01T03:33:02;76974.38;;;-147.06;89.61
54453;BME280;40363;52.270;10.546;2023-06-01T03:35:29;76976.44;;;-147.06;89.76
54453;BME280;40363;52.270;10.546;2023-06-01T03:37:56;76974.38;;;-147.06;89.63
54453;BME280;40363;52.270;10.546;2023-06-01T03:40:23;76972.34;;;-147.06;89.67
54453;BME280;40363;52.270;10.546;2023-06-01T03:42:49;76976.44;;;-147.06;89.96
54453;BME280;40363;52.270;10.546;2023-06-01T03:45:18;76986.72;;;-147.06;89.99
54453;BME280;40363;52.270;10.546;2023-06-01T03:47:45;77003.16;;;-147.06;90.59
54453;BME280;40363;52.270;10.546;2023-06-01T03:50:12;76978.50;;;-147.06;90.37
54453;BME280;40363;52.270;10.546;2023-06-01T03:52:39;76976.44;;;-147.06;90.16
54453;BME280;40363;52.270;10.546;2023-06-01T03:55:07;76964.13;;;-147.06;90.09
54453;BME280;40363;52.270;10.546;2023-06-01T03:57:36;76970.28;;;-147.06;90.29
54453;BME280;40363;52.270;10.546;2023-06-01T04:00:03;76994.94;;;-147.06;90.72
54453;BME280;40363;52.270;10.546;2023-06-01T04:02:45;76978.50;;;-147.06;90.62
54453;BME280;40363;52.270;10.546;2023-06-01T04:05:13;76988.78;;;-147.06;90.88
54453;BME280;40363;52.270;10.546;2023-06-01T04:07:43;76978.50;;;-147.06;90.90
54453;BME280;40363;52.270;10.546;2023-06-01T04:10:11;76980.56;;;-147.06;90.92
54453;BME280;40363;52.270;10.546;2023-06-01T04:12:39;76974.38;;;-147.06;90.74
54453;BME280;40363;52.270;10.546;2023-06-01T04:15:08;76968.22;;;-147.06;90.48
54453;BME280;40363;52.270;10.546;2023-06-01T04:17:35;76970.28;;;-147.06;90.67
54453;BME280;40363;52.270;10.546;2023-06-01T04:20:07;77001.13;;;-147.06;90.90
54453;BME280;40363;52.270;10.546;2023-06-01T04:22:34;77003.16;;;-147.06;91.43
54453;BME280;40363;52.270;10.546;2023-06-01T04:25:01;76992.88;;;-147.06;91.65
54453;BME280;40363;52.270;10.546;2023-06-01T04:27:28;76980.56;;;-147.06;91.80
54453;BME280;40363;52.270;10.546;2023-06-01T04:29:54;76972.34;;;-147.06;91.26
54453;BME280;40363;52.270;10.546;2023-06-01T04:32:24;76974.38;;;-147.06;91.09
54453;BME280;40363;52.270;10.546;2023-06-01T04:34:51;76960.00;;;-147.06;90.01
54453;BME280;40363;52.270;10.546;2023-06-01T04:37:19;76962.06;;;-147.06;89.98
54453;BME280;40363;52.270;10.546;2023-06-01T04:39:46;76970.28;;;-147.06;90.39
54453;BME280;40363;52.270;10.546;2023-06-01T04:42:15;76978.50;;;-147.06;90.48
54453;BME280;40363;52.270;10.546;2023-06-01T04:44:42;76974.38;;;-147.06;90.28
54453;BME280;40363;52.270;10.546;2023-06-01T04:47:10;76978.50;;;-147.06;89.92
54453;BME280;40363;52.270;10.546;2023-06-01T04:49:40;76970.28;;;-147.06;89.84
54453;BME280;40363;52.270;10.546;2023-06-01T04:52:08;76953.84;;;-147.06;89.23
54453;BME280;40363;52.270;10.546;2023-06-01T04:54:37;76951.78;;;-147.06;88.89
54453;BME280;40363;52.270;10.546;2023-06-01T04:57:04;76970.28;;;-147.06;89.27
54453;BME280;40363;52.270;10.546;2023-06-01T04:59:32;76990.84;;;-147.06;90.27
54453;BME280;40363;52.270;10.546;2023-06-01T05:01:59;76980.56;;;-147.06;90.44
54453;BME280;40363;52.270;10.546;2023-06-01T05:04:26;76978.50;;;-147.06;90.19
54453;BME280;40363;52.270;10.546;2023-06-01T05:06:53;76976.44;;;-147.06;90.24
54453;BME280;40363;52.270;10.546;2023-06-01T05:09:19;76966.16;;;-147.06;89.99
54453;BME280;40363;52.270;10.546;2023-06-01T05:11:47;76957.94;;;-147.06;89.91
54453;BME280;40363;52.270;10.546;2023-06-01T05:14:14;76943.56;;;-147.06;89.56
54453;BME280;40363;52.270;10.546;2023-06-01T05:16:41;76937.38;;;-147.06;89.63
54453;BME280;40363;52.270;10.546;2023-06-01T05:19:07;76929.16;;;-147.06;88.99
54453;BME280;40363;52.270;10.546;2023-06-01T05:21:34;76933.28;;;-147.06;89.25
54453;BME280;40363;52.270;10.546;2023-06-01T05:24:01;76931.22;;;-147.06;88.85
54453;BME280;40363;52.270;10.546;2023-06-01T05:26:28;76933.28;;;-147.06;88.38
54453;BME280;40363;52.270;10.546;2023-06-01T05:28:56;76906.56;;;-147.06;88.40
54453;BME280;40363;52.270;10.546;2023-06-01T05:31:23;76937.38;;;-147.06;88.95
54453;BME280;40363;52.270;10.546;2023-06-01T05:33:53;76914.78;;;-147.06;88.89
54453;BME280;40363;52.270;10.546;2023-06-01T05:36:20;76906.56;;;-147.06;88.35
54453;BME280;40363;52.270;10.546;2023-06-01T05:38:47;76900.38;;;-147.06;88.45
54453;BME280;40363;52.270;10.546;2023-06-01T05:41:13;76904.50;;;-147.06;88.40
54453;BME280;40363;52.270;10.546;2023-06-01T05:43:40;76920.94;;;-147.06;88.60
54453;BME280;40363;52.270;10.546;2023-06-01T05:46:08;76908.63;;;-147.06;87.99
54453;BME280;40363;52.270;10.546;2023-06-01T05:48:35;76912.72;;;-147.06;87.38
54453;BME280;40363;52.270;10.546;2023-06-01T05:51:01;76920.94;;;-147.06;87.38
54453;BME280;40363;52.270;10.546;2023-06-01T05:53:28;76912.72;;;-147.06;87.11
54453;BME280;40363;52.270;10.546;2023-06-01T05:55:55;76904.50;;;-147.06;87.21
54453;BME280;40363;52.270;10.546;2023-06-01T05:58:21;76883.94;;;-147.06;86.45
54453;BME280;40363;52.270;10.546;2023-06-01T06:00:48;76883.94;;;-147.06;86.47
54453;BME280;40363;52.270;10.546;2023-06-01T06:03:17;76875.72;;;-147.06;86.33
54453;BME280;40363;52.270;10.546;2023-06-01T06:05:43;76875.72;;;-147.06;86.44
54453;BME280;40363;52.270;10.546;2023-06-01T06:08:10;76888.06;;;-147.06;86.98
54453;BME280;40363;52.270;10.546;2023-06-01T06:10:37;76875.72;;;-147.06;86.60
54453;BME280;40363;52.270;10.546;2023-06-01T06:13:03;76883.94;;;-147.06;87.13
54453;BME280;40363;52.270;10.546;2023-06-01T06:15:30;76879.84;;;-147.06;86.66
54453;BME280;40363;52.270;10.546;2023-06-01T06:17:57;76892.16;;;-147.06;87.44
54453;BME280;40363;52.270;10.546;2023-06-01T06:20:25;76896.28;;;-147.06;88.12
54453;BME280;40363;52.270;10.546;2023-06-01T06:22:51;76875.72;;;-147.06;87.69
54453;BME280;40363;52.270;10.546;2023-06-01T06:25:18;76875.72;;;-147.06;86.95
54453;BME280;40363;52.270;10.546;2023-06-01T06:27:46;76875.72;;;-147.06;86.88
54453;BME280;40363;52.270;10.546;2023-06-01T06:30:13;76842.84;;;-147.06;85.96
54453;BME280;40363;52.270;10.546;2023-06-01T06:32:40;76859.28;;;-147.06;85.79
54453;BME280;40363;52.270;10.546;2023-06-01T06:35:07;76859.28;;;-147.06;85.60
54453;BME280;40363;52.270;10.546;2023-06-01T06:37:39;76863.38;;;-147.06;85.36
54453;BME280;40363;52.270;10.546;2023-06-01T06:40:07;76851.06;;;-147.06;84.95
54453;BME280;40363;52.270;10.546;2023-06-01T06:42:34;76863.38;;;-147.06;85.10
54453;BME280;40363;52.270;10.546;2023-06-01T06:45:01;76865.44;;;-147.06;84.65
54453;BME280;40363;52.270;10.546;2023-06-01T06:47:28;76873.66;;;-147.06;85.31
54453;BME280;40363;52.270;10.546;2023-06-01T06:49:55;76867.50;;;-147.06;85.02
54453;BME280;40363;52.270;10.546;2023-06-01T06:52:22;76851.06;;;-147.06;84.66
54453;BME280;40363;52.270;10.546;2023-06-01T06:54:50;76846.94;;;-147.06;84.80
54453;BME280;40363;52.270;10.546;2023-06-01T06:57:17;76851.06;;;-147.06;84.90
54453;BME280;40363;52.270;10.546;2023-06-01T06:59:43;76849.00;;;-147.06;84.60
54453;BME280;40363;52.270;10.546;2023-06-01T07:02:10;76840.78;;;-147.06;84.32
54453;BME280;40363;52.270;10.546;2023-06-01T07:04:38;76851.06;;;-147.06;84.23
54453;BME280;40363;52.270;10.546;2023-06-01T07:07:05;76846.94;;;-147.06;83.97
54453;BME280;40363;52.270;10.546;2023-06-01T07:09:32;76851.06;;;-147.06;83.07
54453;BME280;40363;52.270;10.546;2023-06-01T07:12:00;76830.50;;;-147.06;82.43
54453;BME280;40363;52.270;10.546;2023-06-01T07:14:26;76801.72;;;-147.06;81.94
54453;BME280;40363;52.270;10.546;2023-06-01T07:16:53;76781.16;;;-147.06;81.71
54453;BME280;40363;52.270;10.546;2023-06-01T07:19:19;76789.38;;;-147.06;80.58
54453;BME280;40363;52.270;10.546;2023-06-01T07:21:47;76797.63;;;-147.06;81.09
54453;BME280;40363;52.270;10.546;2023-06-01T07:24:13;76795.56;;;-147.06;80.81
54453;BME280;40363;52.270;10.546;2023-06-01T07:26:40;76809.94;;;-147.06;80.82
54453;BME280;40363;52.270;10.546;2023-06-01T07:29:08;76781.16;;;-147.06;79.26
54453;BME280;40363;52.270;10.546;2023-06-01T07:31:35;76768.84;;;-147.06;77.93
54453;BME280;40363;52.270;10.546;2023-06-01T07:34:01;76756.50;;;-147.06;77.30
54453;BME280;40363;52.270;10.546;2023-06-01T07:36:28;76719.50;;;-147.06;76.34
54453;BME280;40363;52.270;10.546;2023-06-01T07:38:58;76715.38;;;-147.06;75.59
54453;BME280;40363;52.270;10.546;2023-06-01T07:41:25;76740.06;;;-147.06;75.70
54453;BME280;40363;52.270;10.546;2023-06-01T07:43:52;76713.34;;;-147.06;75.54
54453;BME280;40363;52.270;10.546;2023-06-01T07:46:20;76703.06;;;-147.06;75.44
54453;BME280;40363;52.270;10.546;2023-06-01T07:48:47;76682.50;;;-147.06;74.42
54453;BME280;40363;52.270;10.546;2023-06-01T07:51:14;76680.44;;;-147.06;73.83
54453;BME280;40363;52.270;10.546;2023-06-01T07:53:40;76668.13;;;-147.06;72.70
54453;BME280;40363;52.270;10.546;2023-06-01T07:56:07;76674.28;;;-147.06;72.86
54453;BME280;40363;52.270;10.546;2023-06-01T07:58:34;76668.13;;;-147.06;72.59
54453;BME280;40363;52.270;10.546;2023-06-01T08:01:01;76643.44;;;-147.06;71.91
54453;BME280;40363;52.270;10.546;2023-06-01T08:03:29;76651.66;;;-147.06;72.30
54453;BME280;40363;52.270;10.546;2023-06-01T08:05:58;76649.63;;;-147.06;72.35
54453;BME280;40363;52.270;10.546;2023-06-01T08:08:27;76649.63;;;-147.06;73.04
54453;BME280;40363;52.270;10.546;2023-06-01T08:10:54;76666.06;;;-147.06;73.47
54453;BME280;40363;52.270;10.546;2023-06-01T08:13:21;76653.72;;;-147.06;73.11
54453;BME280;40363;52.270;10.546;2023-06-01T08:15:51;76645.50;;;-147.06;72.79
54453;BME280;40363;52.270;10.546;2023-06-01T08:18:18;76653.72;;;-147.06;73.05
54453;BME280;40363;52.270;10.546;2023-06-01T08:20:46;76639.34;;;-147.06;72.49
54453;BME280;40363;52.270;10.546;2023-06-01T08:23:13;76643.44;;;-147.06;73.13
54453;BME280;40363;52.270;10.546;2023-06-01T08:25:43;76645.50;;;-147.06;72.30
54453;BME280;40363;52.270;10.546;2023-06-01T08:28:09;76641.41;;;-147.06;72.05
54453;BME280;40363;52.270;10.546;2023-06-01T08:30:36;76622.91;;;-147.06;71.89
54453;BME280;40363;52.270;10.546;2023-06-01T08:33:03;76633.16;;;-147.06;71.90
54453;BME280;40363;52.270;10.546;2023-06-01T08:35:30;76616.72;;;-147.06;71.54
54453;BME280;40363;52.270;10.546;2023-06-01T08:38:00;76602.34;;;-147.06;71.33
54453;BME280;40363;52.270;10.546;2023-06-01T08:40:26;76616.72;;;-147.06;71.43
54453;BME280;40363;52.270;10.546;2023-06-01T08:42:57;76610.56;;;-147.06;70.95
54453;BME280;40363;52.270;10.546;2023-06-01T08:45:25;76579.72;;;-147.06;69.87
54453;BME280;40363;52.270;10.546;2023-06-01T08:47:53;76610.56;;;-147.06;70.33
54453;BME280;40363;52.270;10.546;2023-06-01T08:50:20;76583.84;;;-147.06;69.92
54453;BME280;40363;52.270;10.546;2023-06-01T08:52:47;76563.28;;;-147.06;69.00
54453;BME280;40363;52.270;10.546;2023-06-01T08:55:16;76528.34;;;-147.06;67.99
54453;BME280;40363;52.270;10.546;2023-06-01T08:57:43;76516.00;;;-147.06;67.25
54453;BME280;40363;52.270;10.546;2023-06-01T09:00:11;76526.28;;;-147.06;67.73
54453;BME280;40363;52.270;10.546;2023-06-01T09:02:38;76489.28;;;-147.06;67.21
54453;BME280;40363;52.270;10.546;2023-06-01T09:05:06;76439.97;;;-147.06;65.92
54453;BME280;40363;52.270;10.546;2023-06-01T09:07:32;76444.06;;;-147.06;65.89
54453;BME280;40363;52.270;10.546;2023-06-01T09:09:59;76464.63;;;-147.06;66.44
54453;BME280;40363;52.270;10.546;2023-06-01T09:12:29;76446.13;;;-147.06;65.93
54453;BME280;40363;52.270;10.546;2023-06-01T09:15:08;76450.25;;;-147.06;66.37
54453;BME280;40363;52.270;10.546;2023-06-01T09:17:35;76446.13;;;-147.06;66.53
54453;BME280;40363;52.270;10.546;2023-06-01T09:20:02;76460.53;;;-147.06;67.54
54453;BME280;40363;52.270;10.546;2023-06-01T09:22:40;76437.91;;;-147.06;66.57
54453;BME280;40363;52.270;10.546;2023-06-01T09:25:07;76423.53;;;-147.06;67.08
54453;BME280;40363;52.270;10.546;2023-06-01T09:27:50;76396.81;;;-147.06;65.74
54453;BME280;40363;52.270;10.546;2023-06-01T09:30:19;76392.69;;;-147.06;64.52
54453;BME280;40363;52.270;10.546;2023-06-01T09:32:45;76405.03;;;-147.06;64.60
54453;BME280;40363;52.270;10.546;2023-06-01T09:35:16;76388.59;;;-147.06;64.72
54453;BME280;40363;52.270;10.546;2023-06-01T09:37:54;76359.81;;;-147.06;63.74
54453;BME280;40363;52.270;10.546;2023-06-01T09:40:22;76353.63;;;-147.06;62.92
54453;BME280;40363;52.270;10.546;2023-06-01T09:42:50;76361.84;;;-147.06;62.79
54453;BME280;40363;52.270;10.546;2023-06-01T09:45:19;76376.25;;;-147.06;62.83
54453;BME280;40363;52.270;10.546;2023-06-01T09:47:46;76394.75;;;-147.06;62.49
54453;BME280;40363;52.270;10.546;2023-06-01T09:50:34;76365.97;;;-147.06;62.21
54453;BME280;40363;52.270;10.546;2023-06-01T09:53:01;76376.25;;;-147.06;62.13
54453;BME280;40363;52.270;10.546;2023-06-01T09:55:28;76374.19;;;-147.06;62.60
54453;BME280;40363;52.270;10.546;2023-06-01T09:58:20;76359.81;;;-147.06;62.40
54453;BME280;40363;52.270;10.546;2023-06-01T10:00:48;76345.41;;;-147.06;61.33
54453;BME280;40363;52.270;10.546;2023-06-01T10:03:16;76365.97;;;-147.06;61.38
54453;BME280;40363;52.270;10.546;2023-06-01T10:05:44;76312.53;;;-147.06;59.60
54453;BME280;40363;52.270;10.546;2023-06-01T10:08:11;76296.09;;;-147.06;59.69
54453;BME280;40363;52.270;10.546;2023-06-01T10:10:39;76283.75;;;-147.06;59.69
54453;BME280;40363;52.270;10.546;2023-06-01T10:13:05;76218.00;;;-147.06;58.76
54453;BME280;40363;52.270;10.546;2023-06-01T10:15:33;76193.31;;;-147.06;57.29
54453;BME280;40363;52.270;10.546;2023-06-01T10:18:02;76174.84;;;-147.06;56.68
54453;BME280;40363;52.270;10.546;2023-06-01T10:20:31;76156.34;;;-147.06;56.93
54453;BME280;40363;52.270;10.546;2023-06-01T10:22:59;76197.44;;;-147.06;57.43
54453;BME280;40363;52.270;10.546;2023-06-01T10:25:28;76211.81;;;-147.06;57.80
54453;BME280;40363;52.270;10.546;2023-06-01T10:27:59;76224.16;;;-147.06;57.98
54453;BME280;40363;52.270;10.546;2023-06-01T10:30:27;76240.59;;;-147.06;58.43
54453;BME280;40363;52.270;10.546;2023-06-01T10:32:55;76226.22;;;-147.06;57.73
54453;BME280;40363;52.270;10.546;2023-06-01T10:38:31;76220.03;;;-147.06;58.20
54453;BME280;40363;52.270;10.546;2023-06-01T10:41:26;76205.66;;;-147.06;58.55
54453;BME280;40363;52.270;10.546;2023-06-01T10:43:56;76166.63;;;-147.06;58.20
54453;BME280;40363;52.270;10.546;2023-06-01T10:46:37;76181.00;;;-147.06;57.96
54453;BME280;40363;52.270;10.546;2023-06-01T10:49:07;76218.00;;;-147.06;58.57
54453;BME280;40363;52.270;10.546;2023-06-01T10:51:33;76220.03;;;-147.06;58.15
54453;BME280;40363;52.270;10.546;2023-06-01T10:57:23;76197.44;;;-147.06;58.26
54453;BME280;40363;52.270;10.546;2023-06-01T11:00:13;76187.16;;;-147.06;58.80
54453;BME280;40363;52.270;10.546;2023-06-01T11:02:48;76166.63;;;-147.06;58.37
54453;BME280;40363;52.270;10.546;2023-06-01T11:05:36;76160.44;;;-147.06;57.95
54453;BME280;40363;52.270;10.546;2023-06-01T11:08:03;76135.78;;;-147.06;57.12
54453;BME280;40363;52.270;10.546;2023-06-01T11:10:55;76152.22;;;-147.06;57.39
54453;BME280;40363;52.270;10.546;2023-06-01T11:13:24;76168.66;;;-147.06;57.22
54453;BME280;40363;52.270;10.546;2023-06-01T11:16:27;76139.91;;;-147.06;57.03
54453;BME280;40363;52.270;10.546;2023-06-01T11:18:55;76115.22;;;-147.06;56.07
54453;BME280;40363;52.270;10.546;2023-06-01T11:21:26;76102.91;;;-147.06;56.58
54453;BME280;40363;52.270;10.546;2023-06-01T11:23:55;76107.00;;;-147.06;56.69
54453;BME280;40363;52.270;10.546;2023-06-01T11:26:23;76144.00;;;-147.06;57.81
54453;BME280;40363;52.270;10.546;2023-06-01T11:28:51;76082.34;;;-147.06;56.58
54453;BME280;40363;52.270;10.546;2023-06-01T11:31:19;76135.78;;;-147.06;57.44
54453;BME280;40363;52.270;10.546;2023-06-01T11:33:49;76096.72;;;-147.06;57.33
54453;BME280;40363;52.270;10.546;2023-06-01T11:36:19;76070.00;;;-147.06;56.39
54453;BME280;40363;52.270;10.546;2023-06-01T11:38:51;76076.19;;;-147.06;56.20
54453;BME280;40363;52.270;10.546;2023-06-01T11:41:19;76104.97;;;-147.06;57.12
54453;BME280;40363;52.270;10.546;2023-06-01T11:43:53;76148.13;;;-147.06;58.19
54453;BME280;40363;52.270;10.546;2023-06-01T11:46:20;76158.38;;;-147.06;58.49
54453;BME280;40363;52.270;10.546;2023-06-01T11:48:58;76156.34;;;-147.06;58.04
54453;BME280;40363;52.270;10.546;2023-06-01T11:51:28;76135.78;;;-147.06;58.44
54453;BME280;40363;52.270;10.546;2023-06-01T11:53:56;76164.56;;;-147.06;58.89
54453;BME280;40363;52.270;10.546;2023-06-01T11:56:28;76146.06;;;-147.06;58.13
54453;BME280;40363;52.270;10.546;2023-06-01T11:58:57;76176.88;;;-147.06;59.30
54453;BME280;40363;52.270;10.546;2023-06-01T12:01:25;76164.56;;;-147.06;59.09
54453;BME280;40363;52.270;10.546;2023-06-01T12:03:51;76189.22;;;-147.06;60.55
54453;BME280;40363;52.270;10.546;2023-06-01T12:06:19;76209.78;;;-147.06;59.90
54453;BME280;40363;52.270;10.546;2023-06-01T12:08:47;76144.00;;;-147.06;57.97
54453;BME280;40363;52.270;10.546;2023-06-01T12:11:15;76086.47;;;-147.06;56.55
54453;BME280;40363;52.270;10.546;2023-06-01T12:13:43;76088.50;;;-147.06;56.29
54453;BME280;40363;52.270;10.546;2023-06-01T12:16:12;76100.84;;;-147.06;56.02
54453;BME280;40363;52.270;10.546;2023-06-01T12:18:40;76094.69;;;-147.06;56.39
54453;BME280;40363;52.270;10.546;2023-06-01T12:21:11;76090.56;;;-147.06;56.17
54453;BME280;40363;52.270;10.546;2023-06-01T12:23:41;76076.19;;;-147.06;55.67
54453;BME280;40363;52.270;10.546;2023-06-01T12:26:08;76057.69;;;-147.06;55.27
54453;BME280;40363;52.270;10.546;2023-06-01T12:28:49;76047.41;;;-147.06;54.83
54453;BME280;40363;52.270;10.546;2023-06-01T12:31:21;76053.56;;;-147.06;55.38
54453;BME280;40363;52.270;10.546;2023-06-01T12:33:48;76053.56;;;-147.06;55.30
54453;BME280;40363;52.270;10.546;2023-06-01T12:36:28;76096.72;;;-147.06;55.85
54453;BME280;40363;52.270;10.546;2023-06-01T12:38:57;76107.00;;;-147.06;56.70
54453;BME280;40363;52.270;10.546;2023-06-01T12:41:25;76125.50;;;-147.06;56.76
54453;BME280;40363;52.270;10.546;2023-06-01T12:43:53;76100.84;;;-147.06;56.03
54453;BME280;40363;52.270;10.546;2023-06-01T12:46:21;76057.69;;;-147.06;54.28